Time;durP1;ratioP1;P1;durP2;ratioP2;P2;SDS_P1;SDS_P2;PMS_P1;PMS_P2;Temp;Humidity;BMP_temperature;BMP_pressure;BME280_temperature;BME280_humidity;BME280_pressure;Samples;Min_cycle;Max_cycle;Signal;HPM_P1;HPM_P2
2023/07/15 00:02:12;;;;;;;;;;;23.40;51.90;;;;;;5038843;28;19921;-56
2023/07/15 00:04:39;;;;;;;;;;;23.40;52.00;;;;;;5038590;28;20020;-56
2023/07/15 00:07:06;;;;;;;;;;;23.40;52.00;;;;;;5038098;28;19921;-57
2023/07/15 00:09:35;;;;;;;;;;;23.40;52.00;;;;;;5038329;28;19928;-57
2023/07/15 00:12:03;;;;;;;;;;;23.40;52.00;;;;;;5038995;28;19928;-58
2023/07/15 00:14:30;;;;;;;;;;;23.40;52.00;;;;;;5038375;28;19921;-58
2023/07/15 00:16:57;;;;;;;;;;;23.40;52.00;;;;;;5055919;28;19971;-58
2023/07/15 00:19:24;;;;;;;;;;;23.40;52.00;;;;;;5038311;28;19921;-58
2023/07/15 00:21:51;;;;;;;;;;;23.40;52.00;;;;;;5055830;28;20007;-58
2023/07/15 00:24:18;;;;;;;;;;;23.40;52.10;;;;;;5038810;28;19955;-56
2023/07/15 00:26:47;;;;;;;;;;;23.40;52.10;;;;;;5038697;28;20016;-58
2023/07/15 00:29:16;;;;;;;;;;;23.40;52.10;;;;;;5038172;28;19921;-57
2023/07/15 00:31:43;;;;;;;;;;;23.40;52.10;;;;;;5037927;28;20011;-57
2023/07/15 00:34:10;;;;;;;;;;;23.40;52.10;;;;;;5037919;28;19920;-56
2023/07/15 00:36:37;;;;;;;;;;;23.40;52.10;;;;;;5037912;28;19920;-57
2023/07/15 00:39:05;;;;;;;;;;;23.40;52.10;;;;;;5038258;28;19924;-56
2023/07/15 00:41:33;;;;;;;;;;;23.40;52.10;;;;;;5037456;28;19925;-58
2023/07/15 00:44:01;;;;;;;;;;;23.40;52.10;;;;;;5037869;28;19921;-58
2023/07/15 00:46:36;;;;;;;;;;;23.40;52.10;;;;;;5038856;28;19944;-57
2023/07/15 00:49:04;;;;;;;;;;;23.40;52.10;;;;;;5055432;28;19987;-57
2023/07/15 00:51:32;;;;;;;;;;;23.40;52.00;;;;;;5038628;28;19929;-58
2023/07/15 00:53:59;;;;;;;;;;;23.40;52.00;;;;;;5037714;28;19927;-58
2023/07/15 00:56:26;;;;;;;;;;;23.40;52.00;;;;;;5038282;28;19920;-58
2023/07/15 00:58:53;;;;;;;;;;;23.40;52.00;;;;;;5037369;28;19962;-57
2023/07/15 01:01:20;;;;;;;;;;;23.40;51.90;;;;;;5038668;28;20000;-57
2023/07/15 01:03:48;;;;;;;;;;;23.40;51.90;;;;;;5038070;28;19920;-58
2023/07/15 01:06:15;;;;;;;;;;;23.40;51.90;;;;;;5037395;28;19921;-58
2023/07/15 01:08:42;;;;;;;;;;;23.40;51.90;;;;;;5055618;28;19921;-58
2023/07/15 01:11:10;;;;;;;;;;;23.40;51.90;;;;;;5037395;28;19920;-58
2023/07/15 01:13:37;;;;;;;;;;;23.40;51.90;;;;;;5054990;28;19964;-59
2023/07/15 01:16:04;;;;;;;;;;;23.40;51.90;;;;;;5037665;28;19964;-58
2023/07/15 01:18:31;;;;;;;;;;;23.40;51.80;;;;;;5037444;28;19928;-58
2023/07/15 01:20:59;;;;;;;;;;;23.40;51.80;;;;;;5037371;28;19927;-58
2023/07/15 01:23:27;;;;;;;;;;;23.40;51.80;;;;;;5037218;28;19921;-58
2023/07/15 01:25:55;;;;;;;;;;;23.40;51.80;;;;;;5037334;28;19975;-58
2023/07/15 01:28:21;;;;;;;;;;;23.30;51.60;;;;;;5037122;28;19970;-58
2023/07/15 01:30:48;;;;;;;;;;;23.40;51.70;;;;;;5036919;28;19920;-58
2023/07/15 01:33:16;;;;;;;;;;;23.30;51.60;;;;;;5037385;28;19950;-58
2023/07/15 01:35:45;;;;;;;;;;;23.30;51.60;;;;;;5037217;28;19921;-58
2023/07/15 01:38:12;;;;;;;;;;;23.30;51.60;;;;;;5036797;28;19956;-58
2023/07/15 01:40:40;;;;;;;;;;;23.30;51.50;;;;;;5054413;28;19921;-59
2023/07/15 01:43:07;;;;;;;;;;;23.30;51.50;;;;;;5037307;28;20335;-58
2023/07/15 01:45:34;;;;;;;;;;;23.30;51.50;;;;;;5037174;28;19925;-59
2023/07/15 01:48:00;;;;;;;;;;;23.30;51.40;;;;;;5036597;28;19928;-58
2023/07/15 01:50:27;;;;;;;;;;;23.30;51.40;;;;;;5038669;28;20254;-58
2023/07/15 01:52:54;;;;;;;;;;;23.30;51.40;;;;;;5041388;28;19963;-58
2023/07/15 01:55:21;;;;;;;;;;;23.30;51.30;;;;;;5040624;28;19924;-57
2023/07/15 01:57:49;;;;;;;;;;;23.30;51.30;;;;;;5040571;28;19920;-57
2023/07/15 02:00:20;;;;;;;;;;;23.30;51.20;;;;;;5040809;28;19947;-57
2023/07/15 02:02:47;;;;;;;;;;;23.30;51.20;;;;;;5041106;28;19920;-58
2023/07/15 02:05:18;;;;;;;;;;;23.30;51.20;;;;;;5040782;28;19956;-61
2023/07/15 02:07:45;;;;;;;;;;;23.30;51.20;;;;;;5040685;28;19928;-58
2023/07/15 02:10:11;;;;;;;;;;;23.30;51.10;;;;;;5040908;28;19928;-57
2023/07/15 02:12:38;;;;;;;;;;;23.30;51.10;;;;;;5058258;28;19920;-56
2023/07/15 02:15:08;;;;;;;;;;;23.30;51.00;;;;;;5041194;28;19960;-59
2023/07/15 02:17:35;;;;;;;;;;;23.30;51.00;;;;;;5024401;28;19999;-57
2023/07/15 02:20:03;;;;;;;;;;;23.30;51.00;;;;;;5041253;28;19956;-57
2023/07/15 02:22:31;;;;;;;;;;;23.30;50.90;;;;;;5041236;28;19992;-56
2023/07/15 02:24:58;;;;;;;;;;;23.30;50.90;;;;;;5040935;28;19928;-58
2023/07/15 02:27:25;;;;;;;;;;;23.30;50.90;;;;;;5040927;28;19927;-55
2023/07/15 02:29:52;;;;;;;;;;;23.30;50.90;;;;;;5040739;28;19928;-58
2023/07/15 02:32:33;;;;;;;;;;;23.20;50.80;;;;;;5040327;28;19921;-57
2023/07/15 02:35:02;;;;;;;;;;;23.20;50.70;;;;;;5040747;28;19920;-58
2023/07/15 02:37:28;;;;;;;;;;;23.20;50.70;;;;;;5040432;28;19927;-57
2023/07/15 02:39:55;;;;;;;;;;;23.20;50.70;;;;;;5040849;28;20287;-57
2023/07/15 02:42:22;;;;;;;;;;;23.20;50.60;;;;;;5058340;28;19920;-58
2023/07/15 02:44:49;;;;;;;;;;;23.20;50.60;;;;;;5040534;28;19920;-56
2023/07/15 02:47:16;;;;;;;;;;;23.30;50.70;;;;;;5040254;28;19920;-57
2023/07/15 02:49:43;;;;;;;;;;;23.30;50.60;;;;;;5040120;28;19921;-58
2023/07/15 02:52:12;;;;;;;;;;;23.20;50.50;;;;;;5039909;28;19982;-58
2023/07/15 02:54:39;;;;;;;;;;;23.30;50.60;;;;;;5039446;28;19933;-58
2023/07/15 02:57:05;;;;;;;;;;;23.20;50.50;;;;;;5039796;28;19921;-57
2023/07/15 02:59:34;;;;;;;;;;;23.20;50.40;;;;;;5039957;28;19921;-57
2023/07/15 03:02:01;;;;;;;;;;;23.30;50.40;;;;;;5038561;28;19987;-57
2023/07/15 03:04:27;;;;;;;;;;;23.30;50.40;;;;;;5039885;28;19921;-59
2023/07/15 03:06:55;;;;;;;;;;;23.20;50.30;;;;;;5040454;28;19932;-59
2023/07/15 03:09:23;;;;;;;;;;;23.20;50.30;;;;;;5057062;28;19971;-59
2023/07/15 03:11:50;;;;;;;;;;;23.20;50.30;;;;;;5039646;28;19920;-59
2023/07/15 03:14:17;;;;;;;;;;;23.20;50.20;;;;;;5039593;28;19994;-58
2023/07/15 03:16:44;;;;;;;;;;;23.30;50.30;;;;;;5056750;28;19943;-58
2023/07/15 03:19:11;;;;;;;;;;;23.20;50.20;;;;;;5039060;28;19946;-57
2023/07/15 03:21:38;;;;;;;;;;;23.20;50.10;;;;;;5039413;28;19921;-57
2023/07/15 03:24:05;;;;;;;;;;;23.20;50.10;;;;;;5039133;28;19925;-58
2023/07/15 03:26:33;;;;;;;;;;;23.20;50.10;;;;;;5039401;28;19928;-56
2023/07/15 03:29:00;;;;;;;;;;;23.20;50.00;;;;;;5039094;28;19921;-58
2023/07/15 03:31:27;;;;;;;;;;;23.20;50.00;;;;;;5039533;28;19996;-57
2023/07/15 03:33:54;;;;;;;;;;;23.20;50.00;;;;;;5038989;28;19921;-58
2023/07/15 03:36:21;;;;;;;;;;;23.20;50.00;;;;;;5039202;28;19920;-58
2023/07/15 03:38:47;;;;;;;;;;;23.20;50.00;;;;;;5038839;28;19975;-59
2023/07/15 03:41:14;;;;;;;;;;;23.20;49.90;;;;;;5039235;28;19928;-58
2023/07/15 03:43:42;;;;;;;;;;;23.20;49.90;;;;;;5039704;28;19921;-59
2023/07/15 03:46:09;;;;;;;;;;;23.20;49.90;;;;;;5056822;28;19974;-56
2023/07/15 03:48:36;;;;;;;;;;;23.20;49.90;;;;;;5038509;28;19938;-57
2023/07/15 03:51:03;;;;;;;;;;;23.20;49.90;;;;;;5039187;28;19947;-58
2023/07/15 03:53:30;;;;;;;;;;;23.20;49.90;;;;;;5038671;28;19920;-58
2023/07/15 03:55:56;;;;;;;;;;;23.20;49.80;;;;;;5038480;28;19921;-58
2023/07/15 03:58:23;;;;;;;;;;;23.20;49.80;;;;;;5039098;28;19921;-58
2023/07/15 04:00:51;;;;;;;;;;;23.20;49.80;;;;;;5056453;28;19925;-58
2023/07/15 04:03:18;;;;;;;;;;;23.20;49.80;;;;;;5039016;28;19920;-58
2023/07/15 04:05:46;;;;;;;;;;;23.10;49.70;;;;;;5039012;28;20020;-58
2023/07/15 04:08:13;;;;;;;;;;;23.20;49.70;;;;;;5038353;28;19967;-58
2023/07/15 04:10:40;;;;;;;;;;;23.20;49.70;;;;;;5055729;28;19921;-58
2023/07/15 04:13:07;;;;;;;;;;;23.10;49.60;;;;;;5038037;28;19921;-59
2023/07/15 04:15:33;;;;;;;;;;;23.10;49.60;;;;;;5037981;28;19921;-58
2023/07/15 04:18:02;;;;;;;;;;;23.20;49.60;;;;;;5038138;28;20015;-58
2023/07/15 04:20:28;;;;;;;;;;;23.10;49.60;;;;;;5038337;28;20397;-58
2023/07/15 04:22:56;;;;;;;;;;;23.10;49.50;;;;;;5038174;28;19932;-56
2023/07/15 04:25:23;;;;;;;;;;;23.20;49.60;;;;;;5055585;28;20321;-57
2023/07/15 04:27:50;;;;;;;;;;;23.20;49.60;;;;;;5037708;28;19920;-56
2023/07/15 04:30:17;;;;;;;;;;;23.20;49.60;;;;;;5054805;28;19928;-58
2023/07/15 04:32:44;;;;;;;;;;;23.10;49.50;;;;;;5038072;28;19951;-59
2023/07/15 04:35:12;;;;;;;;;;;23.10;50.10;;;;;;5038698;28;19920;-57
2023/07/15 04:37:39;;;;;;;;;;;23.10;49.50;;;;;;5037843;28;19921;-59
2023/07/15 04:40:07;;;;;;;;;;;23.10;49.50;;;;;;5038621;28;19968;-58
2023/07/15 04:42:33;;;;;;;;;;;23.10;49.50;;;;;;5037758;28;19921;-58
2023/07/15 04:45:01;;;;;;;;;;;23.10;49.50;;;;;;5038148;28;19927;-58
2023/07/15 04:47:27;;;;;;;;;;;23.20;49.60;;;;;;5037556;28;19925;-59
2023/07/15 04:49:54;;;;;;;;;;;23.10;49.50;;;;;;5037702;28;19974;-58
2023/07/15 04:52:22;;;;;;;;;;;23.10;49.50;;;;;;5037786;28;19921;-57
2023/07/15 04:54:49;;;;;;;;;;;23.20;49.60;;;;;;5037897;28;19921;-58
2023/07/15 04:57:16;;;;;;;;;;;23.10;49.50;;;;;;5037320;28;19986;-56
2023/07/15 04:59:45;;;;;;;;;;;23.10;49.50;;;;;;5038283;28;19920;-58
2023/07/15 05:02:12;;;;;;;;;;;23.10;49.50;;;;;;5037266;28;19921;-58
2023/07/15 05:04:39;;;;;;;;;;;23.10;49.50;;;;;;5037121;28;19927;-57
2023/07/15 05:07:06;;;;;;;;;;;23.10;49.50;;;;;;5037513;28;19921;-58
2023/07/15 05:09:34;;;;;;;;;;;23.10;49.50;;;;;;5037338;28;19925;-58
2023/07/15 05:12:00;;;;;;;;;;;23.10;49.60;;;;;;5037702;28;19924;-57
2023/07/15 05:14:27;;;;;;;;;;;23.10;49.60;;;;;;5037393;28;19921;-57
2023/07/15 05:16:54;;;;;;;;;;;23.10;49.60;;;;;;5038543;28;19921;-59
2023/07/15 05:19:22;;;;;;;;;;;23.20;49.60;;;;;;5037292;28;19920;-58
2023/07/15 05:21:52;;;;;;;;;;;23.10;49.60;;;;;;5038360;28;19921;-59
2023/07/15 05:24:18;;;;;;;;;;;23.10;49.60;;;;;;5036758;28;19920;-58
2023/07/15 05:26:47;;;;;;;;;;;23.10;49.70;;;;;;5054855;28;19921;-58
2023/07/15 05:29:14;;;;;;;;;;;23.10;49.70;;;;;;5036813;28;19921;-58
2023/07/15 05:31:41;;;;;;;;;;;23.20;49.80;;;;;;5054825;28;19924;-57
2023/07/15 05:34:08;;;;;;;;;;;23.10;49.80;;;;;;5037533;28;19921;-57
2023/07/15 05:36:34;;;;;;;;;;;23.20;49.80;;;;;;5037564;28;19943;-58
2023/07/15 05:39:01;;;;;;;;;;;23.20;49.80;;;;;;5036787;28;19928;-57
2023/07/15 05:41:28;;;;;;;;;;;23.20;49.90;;;;;;5036709;28;19927;-58
2023/07/15 05:43:56;;;;;;;;;;;23.20;49.90;;;;;;5054408;28;19928;-58
2023/07/15 05:46:23;;;;;;;;;;;23.20;49.90;;;;;;5037406;28;19943;-58
2023/07/15 05:48:50;;;;;;;;;;;23.20;49.90;;;;;;5037455;28;19928;-58
2023/07/15 05:51:16;;;;;;;;;;;23.20;49.80;;;;;;5036812;28;19925;-58
2023/07/15 05:53:43;;;;;;;;;;;23.20;49.80;;;;;;5036587;28;19920;-57
2023/07/15 05:56:10;;;;;;;;;;;23.20;49.80;;;;;;5037350;28;19921;-58
2023/07/15 05:58:37;;;;;;;;;;;23.20;49.70;;;;;;5036653;28;19932;-58
2023/07/15 06:01:05;;;;;;;;;;;23.10;49.70;;;;;;5037708;28;19925;-58
2023/07/15 06:03:32;;;;;;;;;;;23.20;49.70;;;;;;5054310;28;19921;-57
2023/07/15 06:06:01;;;;;;;;;;;23.10;49.60;;;;;;5037266;28;19967;-59
2023/07/15 06:08:27;;;;;;;;;;;23.20;49.70;;;;;;5037050;28;19920;-56
2023/07/15 06:10:54;;;;;;;;;;;23.10;49.60;;;;;;5037287;28;19927;-56
2023/07/15 06:13:21;;;;;;;;;;;23.10;50.20;;;;;;5037042;28;19921;-57
2023/07/15 06:15:48;;;;;;;;;;;23.10;49.60;;;;;;5054342;28;19928;-57
2023/07/15 06:18:16;;;;;;;;;;;23.10;49.70;;;;;;5036712;28;19927;-58
2023/07/15 06:20:45;;;;;;;;;;;23.10;49.70;;;;;;5036766;28;19967;-58
2023/07/15 06:23:11;;;;;;;;;;;23.10;49.70;;;;;;5036794;28;19960;-57
2023/07/15 06:25:38;;;;;;;;;;;23.10;49.70;;;;;;5054067;28;19921;-57
2023/07/15 06:28:05;;;;;;;;;;;23.10;49.80;;;;;;5036929;28;19928;-58
2023/07/15 06:30:32;;;;;;;;;;;23.10;49.80;;;;;;5054195;28;19975;-57
2023/07/15 06:32:59;;;;;;;;;;;23.10;49.90;;;;;;5036395;28;19925;-59
2023/07/15 06:35:27;;;;;;;;;;;23.10;49.90;;;;;;5036726;28;19921;-58
2023/07/15 06:37:54;;;;;;;;;;;23.20;49.90;;;;;;5039923;28;19921;-58
2023/07/15 06:40:20;;;;;;;;;;;23.20;50.00;;;;;;5040424;28;19921;-55
2023/07/15 06:42:47;;;;;;;;;;;23.20;50.00;;;;;;5058623;28;19925;-58
2023/07/15 06:45:14;;;;;;;;;;;23.20;50.00;;;;;;5039743;28;19920;-58
2023/07/15 06:47:41;;;;;;;;;;;23.20;50.00;;;;;;5040013;28;19971;-58
2023/07/15 06:50:08;;;;;;;;;;;23.20;50.00;;;;;;5057573;28;19920;-57
2023/07/15 06:52:37;;;;;;;;;;;23.20;50.10;;;;;;5039717;28;19920;-58
2023/07/15 06:55:04;;;;;;;;;;;23.20;50.00;;;;;;5040380;28;19920;-58
2023/07/15 06:57:31;;;;;;;;;;;23.20;50.00;;;;;;5039843;28;19921;-58
2023/07/15 06:59:58;;;;;;;;;;;23.20;50.10;;;;;;5039911;28;19920;-58
2023/07/15 07:02:25;;;;;;;;;;;23.20;50.10;;;;;;5039802;28;19971;-57
2023/07/15 07:04:52;;;;;;;;;;;23.20;50.10;;;;;;5040122;28;19921;-57
2023/07/15 07:07:22;;;;;;;;;;;23.30;50.20;;;;;;5057246;28;19921;-58
2023/07/15 07:09:50;;;;;;;;;;;23.30;50.20;;;;;;5039371;28;20050;-59
2023/07/15 07:12:18;;;;;;;;;;;23.20;50.20;;;;;;5057153;28;19982;-58
2023/07/15 07:14:45;;;;;;;;;;;23.20;50.10;;;;;;5039363;28;19955;-58
2023/07/15 07:17:11;;;;;;;;;;;23.30;50.30;;;;;;5039348;28;19928;-56
2023/07/15 07:19:38;;;;;;;;;;;23.30;50.30;;;;;;5056980;28;19920;-58
2023/07/15 07:22:05;;;;;;;;;;;23.20;50.20;;;;;;5039647;28;19931;-57
2023/07/15 07:24:32;;;;;;;;;;;23.30;50.30;;;;;;5039724;28;19943;-57
2023/07/15 07:27:01;;;;;;;;;;;23.30;50.30;;;;;;5057078;28;19927;-59
2023/07/15 07:29:28;;;;;;;;;;;23.30;50.30;;;;;;5039000;28;19924;-57
2023/07/15 07:31:54;;;;;;;;;;;23.30;50.30;;;;;;5038752;28;19929;-56
2023/07/15 07:34:21;;;;;;;;;;;23.30;50.30;;;;;;5038990;28;19931;-57
2023/07/15 07:36:48;;;;;;;;;;;23.30;50.30;;;;;;5039973;28;19932;-57
2023/07/15 07:39:15;;;;;;;;;;;23.30;50.40;;;;;;5038545;28;19928;-58
2023/07/15 07:41:42;;;;;;;;;;;23.30;50.40;;;;;;5056598;28;19937;-57
2023/07/15 07:44:10;;;;;;;;;;;23.30;50.40;;;;;;5039528;28;19921;-57
2023/07/15 07:46:37;;;;;;;;;;;23.30;50.40;;;;;;5056494;28;19924;-58
2023/07/15 07:49:03;;;;;;;;;;;23.30;50.40;;;;;;5037877;28;19924;-57
2023/07/15 07:51:30;;;;;;;;;;;23.30;50.50;;;;;;5056440;28;20355;-60
2023/07/15 07:53:57;;;;;;;;;;;23.30;50.50;;;;;;5039270;28;19920;-58
2023/07/15 07:56:24;;;;;;;;;;;23.30;50.40;;;;;;5038506;28;19928;-59
2023/07/15 07:58:54;;;;;;;;;;;23.40;50.50;;;;;;5038434;28;19921;-58
2023/07/15 08:01:23;;;;;;;;;;;23.40;50.50;;;;;;5038886;28;19921;-58
2023/07/15 08:03:49;;;;;;;;;;;23.40;50.50;;;;;;5039321;28;19966;-59
2023/07/15 08:06:17;;;;;;;;;;;23.50;50.60;;;;;;5038711;28;19944;-59
2023/07/15 08:08:43;;;;;;;;;;;23.50;50.50;;;;;;5038794;28;19928;-58
2023/07/15 08:11:10;;;;;;;;;;;23.50;50.50;;;;;;5038720;28;19999;-59
2023/07/15 08:13:37;;;;;;;;;;;23.60;50.80;;;;;;5056159;28;19920;-59
2023/07/15 08:16:04;;;;;;;;;;;23.60;50.80;;;;;;5039113;28;19921;-59
2023/07/15 08:18:32;;;;;;;;;;;23.60;50.80;;;;;;5055657;28;19925;-59
2023/07/15 08:20:59;;;;;;;;;;;23.70;50.60;;;;;;5039280;28;19924;-59
2023/07/15 08:23:26;;;;;;;;;;;23.70;50.60;;;;;;5038217;28;19921;-59
2023/07/15 08:25:53;;;;;;;;;;;23.70;50.10;;;;;;5055859;28;19928;-59
2023/07/15 08:28:20;;;;;;;;;;;23.80;50.50;;;;;;5055571;28;19925;-59
2023/07/15 08:30:46;;;;;;;;;;;23.80;50.20;;;;;;5038032;28;19920;-59
2023/07/15 08:33:13;;;;;;;;;;;23.80;50.00;;;;;;5037877;28;19928;-59
2023/07/15 08:35:43;;;;;;;;;;;23.80;49.90;;;;;;5055939;28;19920;-59
2023/07/15 08:38:10;;;;;;;;;;;23.80;49.60;;;;;;5037956;28;19921;-59
2023/07/15 08:40:37;;;;;;;;;;;23.80;49.60;;;;;;5037652;28;19920;-59
2023/07/15 08:43:04;;;;;;;;;;;23.80;49.50;;;;;;5038014;28;19920;-59
2023/07/15 08:45:31;;;;;;;;;;;23.80;49.70;;;;;;5037996;28;19970;-59
2023/07/15 08:47:57;;;;;;;;;;;23.90;50.00;;;;;;5038237;28;19928;-59
2023/07/15 08:50:24;;;;;;;;;;;23.90;50.00;;;;;;5038449;28;19920;-59
2023/07/15 08:52:52;;;;;;;;;;;23.90;50.00;;;;;;5037812;28;19921;-59
2023/07/15 08:55:19;;;;;;;;;;;24.00;49.50;;;;;;5038064;28;19920;-59
2023/07/15 08:57:46;;;;;;;;;;;24.00;50.60;;;;;;5037858;28;19927;-57
2023/07/15 09:00:15;;;;;;;;;;;24.10;50.60;;;;;;5054454;28;19920;-59
2023/07/15 09:02:42;;;;;;;;;;;24.10;50.50;;;;;;5037373;28;19967;-59
2023/07/15 09:05:09;;;;;;;;;;;24.10;50.20;;;;;;5054946;28;19928;-59
2023/07/15 09:07:43;;;;;;;;;;;24.10;49.60;;;;;;5037646;28;19970;-58
2023/07/15 09:10:13;;;;;;;;;;;24.20;49.90;;;;;;5054676;28;19921;-58
2023/07/15 09:12:43;;;;;;;;;;;24.20;50.00;;;;;;5037265;28;19920;-58
2023/07/15 09:15:11;;;;;;;;;;;24.20;49.60;;;;;;5037440;28;19966;-58
2023/07/15 09:17:38;;;;;;;;;;;24.30;50.00;;;;;;5037362;28;19920;-58
2023/07/15 09:20:12;;;;;;;;;;;24.30;49.70;;;;;;5037444;28;19921;-59
2023/07/15 09:22:39;;;;;;;;;;;24.30;49.80;;;;;;5055056;28;19925;-58
2023/07/15 09:25:06;;;;;;;;;;;24.40;49.40;;;;;;5054312;28;19950;-58
2023/07/15 09:27:34;;;;;;;;;;;24.40;49.30;;;;;;5037500;28;19927;-59
2023/07/15 09:30:01;;;;;;;;;;;24.40;49.70;;;;;;5036859;28;19944;-58
2023/07/15 09:32:28;;;;;;;;;;;24.40;49.80;;;;;;5054731;28;19967;-58
2023/07/15 09:34:55;;;;;;;;;;;24.50;50.40;;;;;;5037150;28;19920;-58
2023/07/15 09:37:28;;;;;;;;;;;24.50;49.80;;;;;;5037713;28;19921;-58
2023/07/15 09:39:56;;;;;;;;;;;24.50;49.50;;;;;;5036690;28;19921;-58
2023/07/15 09:42:23;;;;;;;;;;;24.60;49.60;;;;;;5036921;28;19974;-58
2023/07/15 09:44:51;;;;;;;;;;;24.60;49.60;;;;;;5036972;28;19921;-58
2023/07/15 09:47:18;;;;;;;;;;;24.60;49.80;;;;;;5036987;28;19943;-58
2023/07/15 09:49:44;;;;;;;;;;;24.60;49.80;;;;;;5037067;28;19928;-57
2023/07/15 09:52:11;;;;;;;;;;;24.70;50.00;;;;;;5037296;28;19921;-57
2023/07/15 09:54:38;;;;;;;;;;;24.70;50.20;;;;;;5036817;28;19920;-58
2023/07/15 09:57:06;;;;;;;;;;;24.70;50.20;;;;;;5054581;28;19935;-58
2023/07/15 09:59:35;;;;;;;;;;;24.80;50.30;;;;;;5054540;28;19921;-57
2023/07/15 10:02:05;;;;;;;;;;;24.90;50.10;;;;;;5054625;28;19963;-57
2023/07/15 10:04:32;;;;;;;;;;;24.90;50.30;;;;;;5036433;28;19956;-57
2023/07/15 10:06:59;;;;;;;;;;;24.90;49.80;;;;;;5037365;28;19927;-58
2023/07/15 10:09:26;;;;;;;;;;;25.00;50.00;;;;;;5036823;28;19925;-57
2023/07/15 10:11:52;;;;;;;;;;;25.00;50.20;;;;;;5039310;28;19951;-57
2023/07/15 10:14:19;;;;;;;;;;;25.00;50.20;;;;;;5040780;28;19980;-58
2023/07/15 10:16:46;;;;;;;;;;;25.10;50.30;;;;;;5040464;28;19921;-57
2023/07/15 10:19:34;;;;;;;;;;;25.10;50.30;;;;;;5056612;28;19921;-58
2023/07/15 10:22:02;;;;;;;;;;;25.10;50.60;;;;;;5034773;28;20355;-58
2023/07/15 10:24:29;;;;;;;;;;;25.20;50.30;;;;;;5040798;28;19921;-59
2023/07/15 10:26:56;;;;;;;;;;;25.20;49.80;;;;;;5040508;28;19974;-58
2023/07/15 10:29:23;;;;;;;;;;;25.20;49.20;;;;;;5041509;28;19955;-58
2023/07/15 10:32:05;;;;;;;;;;;25.20;49.60;;;;;;5041295;28;19932;-58
2023/07/15 10:34:35;;;;;;;;;;;25.30;49.30;;;;;;5040158;28;19928;-57
2023/07/15 10:37:08;;;;;;;;;;;25.30;49.00;;;;;;5040631;28;19921;-56
2023/07/15 10:39:34;;;;;;;;;;;25.30;48.70;;;;;;5040512;28;19928;-57
2023/07/15 10:42:09;;;;;;;;;;;25.30;48.10;;;;;;5040178;28;19925;-57
2023/07/15 10:44:39;;;;;;;;;;;25.40;47.80;;;;;;5039765;28;19921;-57
2023/07/15 10:47:07;;;;;;;;;;;25.50;47.80;;;;;;5040566;28;19924;-57
2023/07/15 10:49:34;;;;;;;;;;;25.50;47.80;;;;;;5040069;28;20016;-57
2023/07/15 10:52:02;;;;;;;;;;;25.60;48.00;;;;;;5040260;28;19921;-58
2023/07/15 10:54:30;;;;;;;;;;;25.60;47.60;;;;;;5057455;28;19927;-57
2023/07/15 10:56:57;;;;;;;;;;;25.70;48.10;;;;;;5040373;28;19925;-57
2023/07/15 10:59:24;;;;;;;;;;;25.70;47.80;;;;;;5040346;28;19921;-58
2023/07/15 11:01:51;;;;;;;;;;;25.70;47.60;;;;;;5039866;28;19925;-57
2023/07/15 11:04:19;;;;;;;;;;;25.70;48.20;;;;;;5039862;28;19921;-57
2023/07/15 11:06:46;;;;;;;;;;;25.80;47.90;;;;;;5039758;28;19921;-56
2023/07/15 11:09:16;;;;;;;;;;;25.80;47.50;;;;;;5040500;28;19932;-57
2023/07/15 11:11:44;;;;;;;;;;;25.80;47.10;;;;;;5039415;28;19920;-57
2023/07/15 11:14:21;;;;;;;;;;;25.90;46.90;;;;;;5039828;28;19947;-58
2023/07/15 11:16:50;;;;;;;;;;;25.90;46.90;;;;;;5040109;28;19921;-57
2023/07/15 11:19:16;;;;;;;;;;;26.00;46.90;;;;;;5039159;28;19928;-57
2023/07/15 11:21:43;;;;;;;;;;;26.10;46.60;;;;;;5057408;28;19921;-57
2023/07/15 11:24:10;;;;;;;;;;;26.10;46.50;;;;;;5037901;28;19924;-57
2023/07/15 11:26:37;;;;;;;;;;;26.20;46.40;;;;;;5039160;28;19928;-57
2023/07/15 11:29:15;;;;;;;;;;;26.30;46.70;;;;;;5039437;28;20003;-58
2023/07/15 11:31:42;;;;;;;;;;;26.30;46.40;;;;;;5039911;28;19979;-58
2023/07/15 11:34:09;;;;;;;;;;;26.40;45.40;;;;;;5056895;28;19921;-58
2023/07/15 11:36:37;;;;;;;;;;;26.40;45.30;;;;;;5057225;28;19921;-58
2023/07/15 11:39:04;;;;;;;;;;;26.50;45.60;;;;;;5057028;28;19921;-59
2023/07/15 11:41:32;;;;;;;;;;;26.50;45.40;;;;;;5039296;28;20012;-59
2023/07/15 11:43:58;;;;;;;;;;;26.50;45.40;;;;;;5038935;28;19921;-59
2023/07/15 11:46:27;;;;;;;;;;;26.60;45.40;;;;;;5039783;28;19920;-58
2023/07/15 11:48:54;;;;;;;;;;;26.60;45.60;;;;;;5039385;28;19927;-57
2023/07/15 11:51:21;;;;;;;;;;;26.60;45.70;;;;;;5038241;28;19920;-56
2023/07/15 11:53:47;;;;;;;;;;;26.60;45.50;;;;;;5056782;28;19929;-58
2023/07/15 11:56:29;;;;;;;;;;;26.70;45.40;;;;;;5056299;28;19976;-58
2023/07/15 11:58:56;;;;;;;;;;;26.70;45.60;;;;;;5056009;28;19928;-58
2023/07/15 12:01:24;;;;;;;;;;;26.70;45.70;;;;;;5038732;28;19927;-58
2023/07/15 12:03:52;;;;;;;;;;;26.70;45.50;;;;;;5038564;28;19924;-58
2023/07/15 12:06:19;;;;;;;;;;;26.70;46.00;;;;;;5039074;28;20024;-58
2023/07/15 12:08:58;;;;;;;;;;;26.70;46.00;;;;;;5038312;28;19928;-56
2023/07/15 12:11:25;;;;;;;;;;;26.70;45.70;;;;;;5038115;28;19924;-58
2023/07/15 12:13:52;;;;;;;;;;;26.70;45.70;;;;;;5038722;28;19928;-58
2023/07/15 12:16:19;;;;;;;;;;;26.70;45.80;;;;;;5038680;28;19971;-58
2023/07/15 12:18:45;;;;;;;;;;;26.70;46.10;;;;;;5056017;28;19974;-58
2023/07/15 12:21:14;;;;;;;;;;;26.70;46.50;;;;;;5055847;28;19920;-59
2023/07/15 12:23:41;;;;;;;;;;;26.70;46.50;;;;;;5038014;28;19924;-59
2023/07/15 12:26:08;;;;;;;;;;;26.70;46.80;;;;;;5037580;28;19921;-59
2023/07/15 12:28:35;;;;;;;;;;;26.70;46.40;;;;;;5055844;28;19920;-58
2023/07/15 12:31:01;;;;;;;;;;;26.70;46.50;;;;;;5038570;28;19983;-58
2023/07/15 12:33:28;;;;;;;;;;;26.70;46.30;;;;;;5038592;28;19928;-59
2023/07/15 12:35:55;;;;;;;;;;;26.70;46.30;;;;;;5038018;28;19920;-59
2023/07/15 12:38:23;;;;;;;;;;;26.80;46.40;;;;;;5037999;28;19924;-57
2023/07/15 12:40:50;;;;;;;;;;;26.70;46.40;;;;;;5037296;28;19927;-58
2023/07/15 12:43:17;;;;;;;;;;;26.70;46.20;;;;;;5037643;28;19920;-58
2023/07/15 12:45:43;;;;;;;;;;;26.70;46.10;;;;;;5036073;28;19951;-58
2023/07/15 12:48:10;;;;;;;;;;;26.70;46.20;;;;;;5037532;28;19921;-58
2023/07/15 12:50:37;;;;;;;;;;;26.70;46.40;;;;;;5037533;28;19967;-58
2023/07/15 12:53:04;;;;;;;;;;;26.70;46.50;;;;;;5037737;28;19951;-58
2023/07/15 12:55:32;;;;;;;;;;;26.70;46.40;;;;;;5037965;28;19955;-58
2023/07/15 12:57:59;;;;;;;;;;;26.70;46.50;;;;;;5054286;28;19928;-58
2023/07/15 13:00:26;;;;;;;;;;;26.70;47.00;;;;;;5037386;28;19928;-58
2023/07/15 13:02:53;;;;;;;;;;;26.70;47.00;;;;;;5037625;28;19924;-59
2023/07/15 13:05:19;;;;;;;;;;;26.70;46.90;;;;;;5055149;28;19921;-58
2023/07/15 13:07:46;;;;;;;;;;;26.60;47.00;;;;;;5037853;28;19927;-57
2023/07/15 13:10:13;;;;;;;;;;;26.60;47.10;;;;;;5037251;28;19921;-58
2023/07/15 13:12:41;;;;;;;;;;;26.60;47.20;;;;;;5055028;28;19966;-58
2023/07/15 13:15:09;;;;;;;;;;;26.50;47.40;;;;;;5034996;28;19927;-58
2023/07/15 13:17:39;;;;;;;;;;;26.50;47.50;;;;;;5037443;28;19928;-57
2023/07/15 13:20:08;;;;;;;;;;;26.50;47.70;;;;;;5037678;28;19921;-58
2023/07/15 13:22:35;;;;;;;;;;;26.40;47.80;;;;;;5037048;28;19921;-58
2023/07/15 13:25:01;;;;;;;;;;;26.40;48.00;;;;;;5035387;28;19921;-58
2023/07/15 13:27:28;;;;;;;;;;;26.40;48.20;;;;;;5037082;28;19971;-58
2023/07/15 13:29:57;;;;;;;;;;;26.40;48.30;;;;;;5036940;28;19924;-58
2023/07/15 13:32:23;;;;;;;;;;;26.30;48.50;;;;;;5037120;28;19931;-58
2023/07/15 13:34:50;;;;;;;;;;;26.30;48.60;;;;;;5054723;28;19921;-58
2023/07/15 13:37:17;;;;;;;;;;;26.30;48.70;;;;;;5035847;28;19975;-59
2023/07/15 13:39:45;;;;;;;;;;;26.30;48.80;;;;;;5037075;28;19977;-56
2023/07/15 13:42:12;;;;;;;;;;;26.20;48.90;;;;;;5036312;28;19972;-57
2023/07/15 13:44:39;;;;;;;;;;;26.20;49.10;;;;;;5028299;28;19920;-58
2023/07/15 13:47:07;;;;;;;;;;;26.20;49.10;;;;;;5057922;28;19932;-58
2023/07/15 13:49:34;;;;;;;;;;;26.20;49.20;;;;;;5044198;28;19935;-58
2023/07/15 13:52:01;;;;;;;;;;;26.20;49.30;;;;;;5035903;28;19956;-58
2023/07/15 13:54:28;;;;;;;;;;;26.20;49.40;;;;;;5042282;28;19948;-58
2023/07/15 13:56:55;;;;;;;;;;;26.10;49.50;;;;;;5059080;28;19920;-58
2023/07/15 13:59:22;;;;;;;;;;;26.10;49.60;;;;;;5064516;28;19921;-58
2023/07/15 14:01:49;;;;;;;;;;;26.10;49.90;;;;;;5041312;28;19925;-59
2023/07/15 14:04:17;;;;;;;;;;;26.10;49.90;;;;;;5057684;28;19927;-58
2023/07/15 14:06:46;;;;;;;;;;;26.00;50.00;;;;;;5055706;28;19978;-58
2023/07/15 14:09:13;;;;;;;;;;;26.00;50.10;;;;;;5039802;28;19928;-58
2023/07/15 14:11:40;;;;;;;;;;;26.00;50.30;;;;;;5037846;28;19970;-58
2023/07/15 14:14:07;;;;;;;;;;;26.00;50.60;;;;;;5055927;28;19932;-58
2023/07/15 14:16:34;;;;;;;;;;;26.00;50.60;;;;;;5041236;28;19928;-58
2023/07/15 14:19:03;;;;;;;;;;;26.00;50.70;;;;;;5036859;28;19937;-57